createdAt,value
2018-03-18T00:01:37.712Z,101305.23
2018-03-18T00:04:03.546Z,101312.20
2018-03-18T00:06:29.370Z,101316.46
2018-03-18T00:08:55.197Z,101316.02
2018-03-18T00:11:20.989Z,101327.06
2018-03-18T00:13:46.787Z,101334.91
2018-03-18T00:16:12.582Z,101323.08
2018-03-18T00:18:38.401Z,101328.37
2018-03-18T00:21:04.181Z,101326.72
2018-03-18T00:23:29.959Z,101328.78
2018-03-18T00:25:55.914Z,101329.78
2018-03-18T00:28:21.731Z,101334.44
2018-03-18T00:30:47.519Z,101329.39
2018-03-18T00:33:13.290Z,101338.28
2018-03-18T00:35:39.103Z,101345.25
2018-03-18T00:38:05.286Z,101333.38
2018-03-18T00:40:31.070Z,101337.45
2018-03-18T00:42:56.852Z,101338.28
2018-03-18T00:45:22.654Z,101343.31
2018-03-18T00:47:48.458Z,101336.75
2018-03-18T00:50:14.250Z,101338.67
2018-03-18T00:52:40.054Z,101335.83
2018-03-18T00:55:05.863Z,101333.88
2018-03-18T00:57:31.664Z,101334.69
2018-03-18T00:59:57.461Z,101339.59
2018-03-18T01:02:23.254Z,101330.64
2018-03-18T01:04:49.050Z,101329.91
2018-03-18T01:07:14.875Z,101325.52
2018-03-18T01:09:40.663Z,101337.12
2018-03-18T01:12:06.461Z,101329.71
2018-03-18T01:14:32.252Z,101329.32
2018-03-18T01:16:58.059Z,101321.39
2018-03-18T01:19:23.867Z,101326.47
2018-03-18T01:21:49.659Z,101329.09
2018-03-18T01:24:15.447Z,101324.63
2018-03-18T01:26:41.267Z,101344.12
2018-03-18T01:29:07.078Z,101340.05
2018-03-18T01:31:32.893Z,101342.41
2018-03-18T01:33:58.733Z,101331.59
2018-03-18T01:36:24.558Z,101336.27
2018-03-18T01:38:50.339Z,101335.23
2018-03-18T01:41:16.135Z,101318.67
2018-03-18T01:43:41.928Z,101340.61
2018-03-18T01:46:07.733Z,101334.26
2018-03-18T01:48:33.527Z,101329.19
2018-03-18T01:50:59.319Z,101320.67
2018-03-18T01:53:25.211Z,101329.53
2018-03-18T01:55:50.984Z,101321.55
2018-03-18T01:58:16.803Z,101326.55
2018-03-18T02:00:42.647Z,101327.23
2018-03-18T02:03:08.454Z,101317.47
2018-03-18T02:05:34.272Z,101326.05
2018-03-18T02:08:00.061Z,101322.19
2018-03-18T02:10:25.843Z,101320.77
2018-03-18T02:12:51.638Z,101325.88
2018-03-18T02:15:17.433Z,101316.11
2018-03-18T02:17:43.225Z,101319.62
2018-03-18T02:20:09.039Z,101322.06
2018-03-18T02:22:34.850Z,101311.24
2018-03-18T02:25:00.641Z,101310.31
2018-03-18T02:27:26.444Z,101304.44
2018-03-18T02:29:52.238Z,101316.27
2018-03-18T02:32:18.057Z,101319.09
2018-03-18T02:34:43.843Z,101320.23
2018-03-18T02:37:09.621Z,101317.28
2018-03-18T02:39:35.432Z,101303.40
2018-03-18T02:42:01.219Z,101321.31
2018-03-18T02:44:27.000Z,101319.78
2018-03-18T02:46:52.813Z,101319.95
2018-03-18T02:49:18.638Z,101310.70
2018-03-18T02:51:44.448Z,101312.02
2018-03-18T02:54:10.265Z,101304.13
2018-03-18T02:56:36.059Z,101304.02
2018-03-18T02:59:01.874Z,101308.66
2018-03-18T03:01:27.684Z,101292.16
2018-03-18T03:03:53.475Z,101311.24
2018-03-18T03:06:19.276Z,101309.03
2018-03-18T03:08:45.114Z,101309.43
2018-03-18T03:11:10.878Z,101314.20
2018-03-18T03:13:36.763Z,101311.83
2018-03-18T03:16:02.579Z,101316.99
2018-03-18T03:18:28.377Z,101300.00
2018-03-18T03:20:54.198Z,101309.44
2018-03-18T03:23:19.982Z,101311.54
2018-03-18T03:25:45.772Z,101311.23
2018-03-18T03:28:11.558Z,101312.17
2018-03-18T03:30:37.338Z,101307.38
2018-03-18T03:33:03.148Z,101301.32
2018-03-18T03:35:28.939Z,101314.02
2018-03-18T03:37:54.735Z,101318.43
2018-03-18T03:40:20.566Z,101310.02
2018-03-18T03:42:46.366Z,101321.78
2018-03-18T03:45:12.171Z,101311.18
2018-03-18T03:47:37.979Z,101318.09
2018-03-18T03:50:03.782Z,101313.48
2018-03-18T03:52:29.566Z,101309.64
2018-03-18T03:54:55.406Z,101314.87
2018-03-18T03:57:21.207Z,101319.80
2018-03-18T03:59:46.999Z,101314.51
2018-03-18T04:02:12.930Z,101317.11
2018-03-18T04:04:38.740Z,101318.97
2018-03-18T04:07:04.543Z,101316.17
2018-03-18T04:09:30.377Z,101328.48
2018-03-18T04:11:56.179Z,101324.56
2018-03-18T04:14:21.978Z,101324.70
2018-03-18T04:16:47.802Z,101325.95
2018-03-18T04:19:13.601Z,101334.05
2018-03-18T04:21:39.400Z,101341.66
2018-03-18T04:24:05.243Z,101323.17
2018-03-18T04:26:31.029Z,101333.76
2018-03-18T04:28:56.821Z,101333.01
2018-03-18T04:31:22.631Z,101325.41
2018-03-18T04:33:48.426Z,101338.22
2018-03-18T04:36:14.226Z,101328.86
2018-03-18T04:38:40.054Z,101337.38
2018-03-18T04:41:05.863Z,101342.00
2018-03-18T04:43:31.651Z,101343.03
2018-03-18T04:45:57.447Z,101341.45
2018-03-18T04:48:24.187Z,101340.81
2018-03-18T04:50:49.976Z,101332.68
2018-03-18T04:53:15.789Z,101334.66
2018-03-18T04:55:41.607Z,101336.20
2018-03-18T04:58:07.410Z,101334.59
2018-03-18T05:00:33.241Z,101334.38
2018-03-18T05:02:59.059Z,101344.70
2018-03-18T05:05:24.882Z,101334.75
2018-03-18T05:07:50.720Z,101338.36
2018-03-18T05:10:16.504Z,101328.73
2018-03-18T05:12:42.292Z,101340.50
2018-03-18T05:15:08.126Z,101348.03
2018-03-18T05:17:33.911Z,101340.38
2018-03-18T05:19:59.709Z,101351.30
2018-03-18T05:22:25.513Z,101351.64
2018-03-18T05:24:51.311Z,101359.12
2018-03-18T05:27:17.124Z,101357.08
2018-03-18T05:29:42.935Z,101350.77
2018-03-18T05:32:08.749Z,101351.73
2018-03-18T05:34:34.539Z,101364.27
2018-03-18T05:37:00.335Z,101353.78
2018-03-18T05:39:26.158Z,101362.32
2018-03-18T05:41:51.949Z,101374.09
2018-03-18T05:44:17.770Z,101368.98
2018-03-18T05:46:43.589Z,101378.15
2018-03-18T05:49:09.371Z,101375.98
2018-03-18T05:51:35.153Z,101376.45
2018-03-18T05:54:00.966Z,101378.27
2018-03-18T05:56:26.793Z,101374.41
2018-03-18T05:58:52.594Z,101388.67
2018-03-18T06:01:18.400Z,101389.48
2018-03-18T06:03:44.214Z,101390.18
2018-03-18T06:06:10.004Z,101388.83
2018-03-18T06:08:35.813Z,101395.58
2018-03-18T06:11:01.643Z,101398.09
2018-03-18T06:13:27.442Z,101403.36
2018-03-18T06:15:53.234Z,101398.91
2018-03-18T06:18:19.038Z,101401.55
2018-03-18T06:20:44.837Z,101401.23
2018-03-18T06:23:10.661Z,101398.97
2018-03-18T06:25:36.466Z,101393.63
2018-03-18T06:28:02.264Z,101407.73
2018-03-18T06:30:28.102Z,101401.06
2018-03-18T06:32:53.902Z,101399.22
2018-03-18T06:35:19.688Z,101408.55
2018-03-18T06:37:45.505Z,101406.50
2018-03-18T06:40:13.039Z,101405.17
2018-03-18T06:42:38.848Z,101400.63
2018-03-18T06:45:04.647Z,101414.38
2018-03-18T06:47:30.444Z,101408.22
2018-03-18T06:49:56.268Z,101411.42
2018-03-18T06:52:22.052Z,101411.04
2018-03-18T06:54:47.843Z,101406.61
2018-03-18T06:57:13.656Z,101420.83
2018-03-18T06:59:39.443Z,101414.98
2018-03-18T07:02:05.239Z,101421.05
2018-03-18T07:04:31.050Z,101422.78
2018-03-18T07:06:56.854Z,101424.06
2018-03-18T07:09:22.648Z,101424.83
2018-03-18T07:11:48.470Z,101413.08
2018-03-18T07:14:14.273Z,101425.17
2018-03-18T07:16:40.070Z,101434.45
2018-03-18T07:19:05.883Z,101428.17
2018-03-18T07:21:31.713Z,101423.78
2018-03-18T07:23:57.548Z,101424.36
2018-03-18T07:26:23.351Z,101435.23
2018-03-18T07:28:49.130Z,101421.13
2018-03-18T07:31:14.917Z,101425.42
2018-03-18T07:33:40.707Z,101427.52
2018-03-18T07:36:06.499Z,101437.95
2018-03-18T07:38:32.316Z,101427.80
2018-03-18T07:40:58.751Z,101425.53
2018-03-18T07:43:24.616Z,101421.16
2018-03-18T07:45:50.422Z,101424.00
2018-03-18T07:48:16.245Z,101423.97
2018-03-18T07:50:42.051Z,101432.80
2018-03-18T07:53:07.880Z,101423.81
2018-03-18T07:55:33.668Z,101413.50
2018-03-18T07:57:59.463Z,101425.91
2018-03-18T08:00:25.272Z,101432.48
2018-03-18T08:02:51.053Z,101428.55
2018-03-18T08:05:16.857Z,101428.89
2018-03-18T08:07:42.675Z,101429.86
2018-03-18T08:10:08.462Z,101426.77
2018-03-18T08:12:34.260Z,101427.86
2018-03-18T08:15:00.063Z,101424.34
2018-03-18T08:17:25.859Z,101428.49
2018-03-18T08:19:51.674Z,101432.23
2018-03-18T08:22:17.460Z,101433.76
2018-03-18T08:24:43.248Z,101437.48
2018-03-18T08:27:09.051Z,101441.64
2018-03-18T08:29:34.870Z,101434.25
2018-03-18T08:32:00.659Z,101439.26
2018-03-18T08:34:26.454Z,101433.63
2018-03-18T08:36:52.240Z,101439.50
2018-03-18T08:39:18.043Z,101435.41
2018-03-18T08:41:43.854Z,101439.64
2018-03-18T08:44:09.644Z,101430.70
2018-03-18T08:46:35.554Z,101436.06
2018-03-18T08:49:01.365Z,101437.13
2018-03-18T08:53:59.826Z,101438.39
2018-03-18T08:56:25.642Z,101435.11
2018-03-18T08:58:51.448Z,101424.24
2018-03-18T09:01:17.309Z,101430.13
2018-03-18T09:03:48.347Z,101440.97
2018-03-18T09:06:14.148Z,101431.27
2018-03-18T09:08:39.990Z,101421.38
2018-03-18T09:11:05.790Z,101429.21
2018-03-18T09:13:31.583Z,101420.69
2018-03-18T09:15:57.392Z,101431.27
2018-03-18T09:18:23.214Z,101423.11
2018-03-18T09:20:49.338Z,101430.63
2018-03-18T09:23:15.131Z,101430.00
2018-03-18T09:25:40.932Z,101422.09
2018-03-18T09:28:06.859Z,101410.95
2018-03-18T09:30:32.643Z,101415.28
2018-03-18T09:32:58.430Z,101414.37
2018-03-18T09:35:24.243Z,101423.75
2018-03-18T09:37:50.175Z,101423.06
2018-03-18T09:40:15.972Z,101406.95
2018-03-18T09:42:41.783Z,101424.84
2018-03-18T09:45:07.612Z,101408.83
2018-03-18T09:47:33.508Z,101421.87
2018-03-18T09:49:59.310Z,101411.84
2018-03-18T09:52:25.154Z,101419.48
2018-03-18T09:54:50.956Z,101402.73
2018-03-18T09:57:16.769Z,101417.39
2018-03-18T09:59:42.578Z,101403.69
2018-03-18T10:02:08.746Z,101410.29
2018-03-18T10:04:35.512Z,101408.92
2018-03-18T10:07:01.324Z,101416.63
2018-03-18T10:09:28.104Z,101412.14
2018-03-18T10:11:53.969Z,101400.89
2018-03-18T10:14:19.803Z,101415.62
2018-03-18T10:16:45.721Z,101420.17
2018-03-18T10:19:12.206Z,101419.21
2018-03-18T10:21:38.043Z,101412.34
2018-03-18T10:24:03.875Z,101426.56
2018-03-18T10:26:29.713Z,101425.76
2018-03-18T10:28:55.604Z,101424.45
2018-03-18T10:31:23.313Z,101422.83
2018-03-18T10:33:49.146Z,101410.33
2018-03-18T10:36:14.964Z,101425.65
2018-03-18T10:38:40.763Z,101421.78
2018-03-18T10:41:06.577Z,101418.08
2018-03-18T10:43:32.391Z,101410.16
2018-03-18T10:45:58.440Z,101410.49
2018-03-18T10:48:24.261Z,101415.78
2018-03-18T10:50:51.118Z,101423.98
2018-03-18T10:53:16.937Z,101422.55
2018-03-18T10:55:45.648Z,101424.42
2018-03-18T10:58:12.055Z,101415.13
2018-03-18T11:00:45.144Z,101417.70
2018-03-18T11:03:11.946Z,101420.08
2018-03-18T11:05:37.851Z,101411.51
2018-03-18T11:08:03.665Z,101416.09
2018-03-18T11:10:29.524Z,101396.53
2018-03-18T11:12:55.356Z,101396.73
2018-03-18T11:15:21.187Z,101396.30
2018-03-18T11:17:47.010Z,101389.73
2018-03-18T11:20:12.810Z,101390.83
2018-03-18T11:22:39.168Z,101384.85
2018-03-18T11:25:06.725Z,101378.16
2018-03-18T11:27:33.489Z,101382.71
2018-03-18T11:29:59.283Z,101384.03
2018-03-18T11:32:25.068Z,101384.32
2018-03-18T11:34:51.031Z,101381.05
2018-03-18T11:37:17.440Z,101399.03
2018-03-18T11:39:44.835Z,101398.94
2018-03-18T11:42:10.648Z,101389.45
2018-03-18T11:44:36.474Z,101384.77
2018-03-18T11:47:03.073Z,101387.41
2018-03-18T11:49:28.937Z,101388.58
2018-03-18T11:51:55.570Z,101379.20
2018-03-18T11:54:21.474Z,101386.97
2018-03-18T11:56:48.903Z,101382.92
2018-03-18T11:59:15.605Z,101380.88
2018-03-18T12:01:41.431Z,101383.17
2018-03-18T12:04:07.883Z,101380.88
2018-03-18T12:06:33.720Z,101376.86
2018-03-18T12:08:59.583Z,101381.75
2018-03-18T12:11:25.490Z,101376.66
2018-03-18T12:13:52.270Z,101384.03
2018-03-18T12:16:18.147Z,101374.64
2018-03-18T12:18:44.039Z,101352.72
2018-03-18T12:21:11.974Z,101360.09
2018-03-18T12:23:37.780Z,101364.19
2018-03-18T12:26:03.627Z,101366.35
2018-03-18T12:28:29.426Z,101351.86
2018-03-18T12:30:55.339Z,101361.19
2018-03-18T12:33:21.171Z,101357.48
2018-03-18T12:35:47.135Z,101362.78
2018-03-18T12:38:12.934Z,101355.41
2018-03-18T12:40:38.795Z,101361.39
2018-03-18T12:43:18.123Z,101352.83
2018-03-18T12:45:45.697Z,101351.94
2018-03-18T12:48:11.544Z,101352.91
2018-03-18T12:50:37.355Z,101351.43
2018-03-18T12:53:03.250Z,101341.17
2018-03-18T12:55:29.071Z,101341.44
2018-03-18T12:57:54.873Z,101344.05
2018-03-18T13:00:21.637Z,101334.28
2018-03-18T13:02:48.587Z,101341.19
2018-03-18T13:05:14.892Z,101337.98
2018-03-18T13:07:40.990Z,101332.44
2018-03-18T13:10:07.938Z,101338.42
2018-03-18T13:12:33.975Z,101335.52
2018-03-18T13:15:00.625Z,101325.79
2018-03-18T13:17:27.732Z,101329.72
2018-03-18T13:19:53.898Z,101325.34
2018-03-18T13:22:19.755Z,101318.90
2018-03-18T13:24:45.580Z,101322.88
2018-03-18T13:27:11.391Z,101312.83
2018-03-18T13:29:37.195Z,101324.18
2018-03-18T13:32:03.996Z,101314.41
2018-03-18T13:34:30.524Z,101312.94
2018-03-18T13:36:56.737Z,101315.95
2018-03-18T13:39:22.492Z,101305.84
2018-03-18T13:41:48.923Z,101306.34
2018-03-18T13:44:15.160Z,101312.27
2018-03-18T13:46:40.994Z,101302.73
2018-03-18T13:49:07.182Z,101311.35
2018-03-18T13:51:33.381Z,101305.92
2018-03-18T13:53:59.332Z,101306.12
2018-03-18T13:56:25.143Z,101310.37
2018-03-18T13:58:51.295Z,101303.64
2018-03-18T14:01:17.099Z,101300.71
2018-03-18T14:03:43.919Z,101292.03
2018-03-18T14:06:09.756Z,101304.65
2018-03-18T14:08:35.581Z,101295.84
2018-03-18T14:11:02.516Z,101284.84
2018-03-18T14:13:28.359Z,101301.23
2018-03-18T14:15:54.173Z,101293.54
2018-03-18T14:18:19.954Z,101293.98
2018-03-18T14:20:45.786Z,101293.11
2018-03-18T14:23:11.650Z,101281.63
2018-03-18T14:25:37.472Z,101289.80
2018-03-18T14:28:03.334Z,101282.53
2018-03-18T14:30:29.656Z,101284.53
2018-03-18T14:32:55.469Z,101283.25
2018-03-18T14:35:24.484Z,101275.29
2018-03-18T14:37:50.448Z,101276.84
2018-03-18T14:40:16.330Z,101261.41
2018-03-18T14:42:42.118Z,101262.00
2018-03-18T14:45:07.927Z,101260.84
2018-03-18T14:47:33.747Z,101266.42
2018-03-18T14:50:00.748Z,101279.59
2018-03-18T14:52:26.575Z,101261.55
2018-03-18T14:54:52.435Z,101275.52
2018-03-18T14:57:18.511Z,101259.50
2018-03-18T14:59:44.379Z,101263.66
2018-03-18T15:02:10.191Z,101259.84
2018-03-18T15:04:36.816Z,101264.31
2018-03-18T15:07:05.879Z,101260.59
2018-03-18T15:09:32.011Z,101261.18
2018-03-18T15:11:57.808Z,101272.81
2018-03-18T15:14:24.837Z,101258.50
2018-03-18T15:16:52.138Z,101264.42
2018-03-18T15:19:18.552Z,101252.16
2018-03-18T15:21:44.421Z,101253.56
2018-03-18T15:24:10.620Z,101256.23
2018-03-18T15:26:36.443Z,101252.84
2018-03-18T15:29:02.421Z,101254.91
2018-03-18T15:31:28.831Z,101250.87
2018-03-18T15:33:55.798Z,101251.68
2018-03-18T15:36:22.546Z,101242.98
2018-03-18T15:38:48.354Z,101251.92
2018-03-18T15:41:14.145Z,101262.79
2018-03-18T15:43:39.975Z,101247.44
2018-03-18T15:46:05.769Z,101259.44
2018-03-18T15:48:31.957Z,101253.94
2018-03-18T15:50:57.731Z,101249.81
2018-03-18T15:53:23.543Z,101248.99
2018-03-18T15:55:50.291Z,101261.84
2018-03-18T15:58:16.330Z,101262.30
2018-03-18T16:00:42.154Z,101264.89
2018-03-18T16:03:08.232Z,101246.48
2018-03-18T16:05:34.033Z,101262.12
2018-03-18T16:07:59.818Z,101268.06
2018-03-18T16:10:25.713Z,101272.66
2018-03-18T16:12:51.504Z,101273.15
2018-03-18T16:15:17.323Z,101255.32
2018-03-18T16:17:43.227Z,101264.78
2018-03-18T16:20:09.056Z,101254.05
2018-03-18T16:22:34.877Z,101265.92
2018-03-18T16:25:00.705Z,101269.02
2018-03-18T16:27:26.602Z,101261.95
2018-03-18T16:30:04.815Z,101258.60
2018-03-18T16:32:30.623Z,101256.33
2018-03-18T16:34:56.443Z,101256.48
2018-03-18T16:37:22.551Z,101262.59
2018-03-18T16:39:48.386Z,101259.77
2018-03-18T16:42:14.180Z,101264.95
2018-03-18T16:44:39.997Z,101256.42
2018-03-18T16:47:05.786Z,101254.61
2018-03-18T16:49:31.575Z,101254.77
2018-03-18T16:51:57.417Z,101259.47
2018-03-18T16:54:23.229Z,101259.70
2018-03-18T16:56:49.071Z,101267.14
2018-03-18T16:59:14.908Z,101260.10
2018-03-18T17:01:40.723Z,101265.68
2018-03-18T17:04:06.585Z,101263.66
2018-03-18T17:06:32.439Z,101265.87
2018-03-18T17:08:58.471Z,101262.36
2018-03-18T17:11:24.315Z,101265.18
2018-03-18T17:13:50.141Z,101267.67
2018-03-18T17:16:15.935Z,101271.11
2018-03-18T17:18:41.707Z,101275.38
2018-03-18T17:21:07.519Z,101275.12
2018-03-18T17:23:33.320Z,101279.48
2018-03-18T17:25:59.131Z,101282.89
2018-03-18T17:28:25.244Z,101280.36
2018-03-18T17:30:51.040Z,101282.48
2018-03-18T17:33:16.860Z,101285.67
2018-03-18T17:35:42.660Z,101288.31
2018-03-18T17:38:08.505Z,101288.67
2018-03-18T17:40:34.493Z,101293.59
2018-03-18T17:43:00.292Z,101293.16
2018-03-18T17:45:38.428Z,101301.00
2018-03-18T17:48:16.663Z,101301.24
2018-03-18T17:50:55.397Z,101302.59
2018-03-18T17:53:33.652Z,101301.44
2018-03-18T17:56:11.960Z,101314.36
2018-03-18T17:58:37.777Z,101314.92
2018-03-18T18:01:04.238Z,101313.20
2018-03-18T18:03:32.682Z,101319.20
2018-03-18T18:05:58.496Z,101322.54
2018-03-18T18:08:24.303Z,101322.47
2018-03-18T18:10:50.131Z,101336.27
2018-03-18T18:13:15.911Z,101337.41
2018-03-18T18:15:42.151Z,101328.70
2018-03-18T18:18:07.993Z,101335.37
2018-03-18T18:20:34.099Z,101330.08
2018-03-18T18:22:59.915Z,101330.42
2018-03-18T18:25:25.716Z,101337.91
2018-03-18T18:27:51.515Z,101344.34
2018-03-18T18:30:17.403Z,101334.75
2018-03-18T18:32:43.203Z,101330.50
2018-03-18T18:35:09.002Z,101341.64
2018-03-18T18:37:35.614Z,101331.48
2018-03-18T18:40:01.425Z,101336.41
2018-03-18T18:42:27.234Z,101331.55
2018-03-18T18:44:53.048Z,101333.98
2018-03-18T18:47:18.842Z,101331.97
2018-03-18T18:49:45.041Z,101332.33
2018-03-18T18:52:10.819Z,101345.26
2018-03-18T18:54:36.608Z,101335.32
2018-03-18T18:57:02.402Z,101339.60
2018-03-18T18:59:28.215Z,101352.62
2018-03-18T19:01:54.032Z,101348.87
2018-03-18T19:04:19.832Z,101347.12
2018-03-18T19:06:45.638Z,101356.04
2018-03-18T19:09:11.458Z,101358.39
2018-03-18T19:11:37.246Z,101363.18
2018-03-18T19:14:03.026Z,101360.81
2018-03-18T19:16:28.811Z,101358.68
2018-03-18T19:18:54.597Z,101363.04
2018-03-18T19:21:20.403Z,101361.57
2018-03-18T19:23:46.219Z,101374.25
2018-03-18T19:26:12.010Z,101367.39
2018-03-18T19:28:37.795Z,101363.25
2018-03-18T19:31:03.574Z,101365.12
2018-03-18T19:33:29.367Z,101368.25
2018-03-18T19:35:55.161Z,101372.13
2018-03-18T19:38:20.958Z,101378.22
2018-03-18T19:40:46.826Z,101382.06
2018-03-18T19:43:12.737Z,101380.84
2018-03-18T19:45:38.565Z,101379.82
2018-03-18T19:48:04.371Z,101379.09
2018-03-18T19:50:30.864Z,101381.36
2018-03-18T19:52:56.683Z,101386.36
2018-03-18T19:55:22.510Z,101383.63
2018-03-18T19:57:48.360Z,101386.75
2018-03-18T20:00:15.164Z,101383.08
2018-03-18T20:02:42.072Z,101385.07
2018-03-18T20:05:07.961Z,101389.73
2018-03-18T20:07:33.867Z,101388.16
2018-03-18T20:09:59.705Z,101390.42
2018-03-18T20:12:25.515Z,101392.34
2018-03-18T20:14:52.002Z,101387.69
2018-03-18T20:17:17.807Z,101388.89
2018-03-18T20:19:43.624Z,101386.14
2018-03-18T20:22:09.441Z,101387.73
2018-03-18T20:24:36.309Z,101395.03
2018-03-18T20:27:02.166Z,101394.70
2018-03-18T20:29:27.976Z,101393.86
2018-03-18T20:31:53.791Z,101395.03
2018-03-18T20:34:20.311Z,101398.97
2018-03-18T20:36:46.134Z,101402.28
2018-03-18T20:39:12.008Z,101403.31
2018-03-18T20:41:38.467Z,101406.98
2018-03-18T20:44:04.988Z,101403.86
2018-03-18T20:46:30.961Z,101398.00
2018-03-18T20:48:56.767Z,101406.55
2018-03-18T20:51:22.564Z,101401.64
2018-03-18T20:53:48.355Z,101385.34
2018-03-18T20:56:14.160Z,101408.12
2018-03-18T20:58:39.981Z,101415.66
2018-03-18T21:01:05.788Z,101409.27
2018-03-18T21:03:31.610Z,101412.97
2018-03-18T21:05:57.785Z,101408.31
2018-03-18T21:08:23.654Z,101422.53
2018-03-18T21:10:49.515Z,101412.49
2018-03-18T21:13:15.388Z,101411.66
2018-03-18T21:15:41.182Z,101407.53
2018-03-18T21:18:07.992Z,101418.22
2018-03-18T21:20:34.225Z,101418.45
2018-03-18T21:23:00.110Z,101416.41
2018-03-18T21:25:25.916Z,101412.36
2018-03-18T21:27:51.767Z,101418.84
2018-03-18T21:32:50.141Z,101412.75
2018-03-18T21:35:15.948Z,101412.87
2018-03-18T21:37:41.846Z,101405.27
2018-03-18T21:40:07.669Z,101409.53
2018-03-18T21:42:33.597Z,101410.85
2018-03-18T21:44:59.462Z,101409.83
2018-03-18T21:47:25.351Z,101408.33
2018-03-18T21:49:51.443Z,101404.55
2018-03-18T21:52:17.238Z,101409.91
2018-03-18T21:54:43.164Z,101403.08
2018-03-18T21:57:08.968Z,101400.92
2018-03-18T21:59:34.850Z,101406.70
2018-03-18T22:02:00.686Z,101407.41
2018-03-18T22:04:26.578Z,101401.11
2018-03-18T22:06:52.424Z,101408.72
2018-03-18T22:09:18.254Z,101403.86
2018-03-18T22:11:44.059Z,101393.33
2018-03-18T22:14:09.922Z,101398.95
2018-03-18T22:16:36.106Z,101405.41
2018-03-18T22:19:01.918Z,101400.48
2018-03-18T22:21:27.734Z,101403.69
2018-03-18T22:23:53.547Z,101409.50
2018-03-18T22:26:19.424Z,101407.70
2018-03-18T22:28:45.247Z,101400.17
2018-03-18T22:31:11.059Z,101398.98
2018-03-18T22:33:37.219Z,101402.64
2018-03-18T22:36:03.052Z,101395.56
2018-03-18T22:38:28.878Z,101402.18
2018-03-18T22:40:54.706Z,101401.48
2018-03-18T22:43:20.530Z,101398.87
2018-03-18T22:45:46.335Z,101399.53
2018-03-18T22:48:12.226Z,101403.20
2018-03-18T22:50:38.114Z,101397.66
2018-03-18T22:53:03.955Z,101390.05
2018-03-18T22:55:30.286Z,101393.72
2018-03-18T22:57:56.140Z,101396.47
2018-03-18T23:00:21.978Z,101390.92
2018-03-18T23:02:47.806Z,101389.11
2018-03-18T23:05:13.625Z,101386.05
2018-03-18T23:07:39.442Z,101395.16
2018-03-18T23:10:05.363Z,101390.72
2018-03-18T23:12:31.178Z,101395.38
2018-03-18T23:14:57.014Z,101395.31
2018-03-18T23:17:22.875Z,101392.59
2018-03-18T23:19:50.058Z,101396.80
2018-03-18T23:22:15.888Z,101391.42
2018-03-18T23:24:41.685Z,101395.08
2018-03-18T23:27:07.483Z,101396.22
2018-03-18T23:29:33.296Z,101395.58
2018-03-18T23:31:59.113Z,101398.06
2018-03-18T23:34:24.908Z,101385.19
2018-03-18T23:36:50.686Z,101390.10
2018-03-18T23:39:16.479Z,101399.64
2018-03-18T23:41:42.322Z,101397.66
2018-03-18T23:44:08.124Z,101391.97
2018-03-18T23:46:33.965Z,101396.27
2018-03-18T23:48:59.792Z,101395.80
2018-03-18T23:51:25.572Z,101396.22
2018-03-18T23:53:51.364Z,101394.58
2018-03-18T23:56:17.147Z,101391.15
2018-03-18T23:58:42.973Z,101387.98
